createdAt,value
2019-04-26T00:00:03.341Z,961.22
2019-04-26T00:01:03.328Z,961.19
2019-04-26T00:02:03.413Z,961.23
2019-04-26T00:03:03.393Z,961.20
2019-04-26T00:04:03.424Z,961.17
2019-04-26T00:05:03.374Z,961.12
2019-04-26T00:06:03.361Z,961.12
2019-04-26T00:07:03.351Z,961.12
2019-04-26T00:08:03.346Z,961.13
2019-04-26T00:09:03.342Z,961.09
2019-04-26T00:10:03.363Z,961.12
2019-04-26T00:11:03.308Z,961.16
2019-04-26T00:12:03.289Z,961.11
2019-04-26T00:13:18.309Z,961.07
2019-04-26T00:14:03.294Z,961.01
2019-04-26T00:15:03.168Z,960.99
2019-04-26T00:16:03.201Z,961.04
2019-04-26T00:17:03.343Z,961.00
2019-04-26T00:18:03.252Z,961.01
2019-04-26T00:19:03.242Z,961.02
2019-04-26T00:20:03.235Z,960.99
2019-04-26T00:21:03.219Z,961.02
2019-04-26T00:22:03.242Z,960.98
2019-04-26T00:23:03.189Z,960.98
2019-04-26T00:24:03.181Z,961.01
2019-04-26T00:25:03.174Z,961.02
2019-04-26T00:26:03.067Z,961.01
2019-04-26T00:27:03.155Z,961.02
2019-04-26T00:28:03.169Z,961.04
2019-04-26T00:29:03.133Z,961.05
2019-04-26T00:30:03.025Z,961.08
2019-04-26T00:31:03.106Z,961.07
2019-04-26T00:32:03.101Z,961.06
2019-04-26T00:33:03.088Z,960.99
2019-04-26T00:34:03.115Z,961.05
2019-04-26T00:35:03.065Z,961.03
2019-04-26T00:36:03.034Z,961.04
2019-04-26T00:37:03.034Z,961.03
2019-04-26T00:38:03.048Z,961.04
2019-04-26T00:39:03.018Z,961.01
2019-04-26T00:40:03.037Z,960.99
2019-04-26T00:41:03.007Z,960.92
2019-04-26T00:42:02.985Z,960.97
2019-04-26T00:43:03.000Z,960.95
2019-04-26T00:44:02.957Z,960.91
2019-04-26T00:45:02.961Z,960.91
2019-04-26T00:46:02.982Z,960.97
2019-04-26T00:47:02.933Z,961.00
2019-04-26T00:48:02.917Z,961.00
2019-04-26T00:49:02.907Z,960.91
2019-04-26T00:50:02.901Z,960.89
2019-04-26T00:51:02.882Z,960.90
2019-04-26T00:52:02.904Z,960.88
2019-04-26T00:53:02.871Z,960.91
2019-04-26T00:54:02.857Z,960.93
2019-04-26T00:55:02.849Z,960.93
2019-04-26T00:56:02.883Z,960.92
2019-04-26T00:57:02.845Z,960.91
2019-04-26T00:58:02.836Z,960.98
2019-04-26T00:59:02.795Z,960.87
2019-04-26T01:00:02.769Z,960.90
2019-04-26T01:01:02.779Z,960.88
2019-04-26T01:02:02.772Z,960.90
2019-04-26T01:03:02.771Z,960.87
2019-04-26T01:04:02.730Z,960.84
2019-04-26T01:05:02.740Z,960.83
2019-04-26T01:06:02.713Z,960.83
2019-04-26T01:07:02.692Z,960.85
2019-04-26T01:08:02.707Z,960.80
2019-04-26T01:09:02.711Z,960.78
2019-04-26T01:10:02.685Z,960.85
2019-04-26T01:11:02.653Z,960.81
2019-04-26T01:12:02.698Z,960.81
2019-04-26T01:13:02.635Z,960.79
2019-04-26T01:14:02.616Z,960.83
2019-04-26T01:15:02.643Z,960.82
2019-04-26T01:16:02.599Z,960.82
2019-04-26T01:17:02.579Z,960.75
2019-04-26T01:18:02.574Z,960.81
2019-04-26T01:19:02.573Z,960.79
2019-04-26T01:20:02.554Z,960.70
2019-04-26T01:21:02.578Z,960.78
2019-04-26T01:22:02.533Z,960.70
2019-04-26T01:23:02.520Z,960.73
2019-04-26T01:24:02.511Z,960.77
2019-04-26T01:25:02.519Z,960.75
2019-04-26T01:26:02.396Z,960.77
2019-04-26T01:27:02.506Z,960.77
2019-04-26T01:28:02.468Z,960.72
2019-04-26T01:29:02.472Z,960.68
2019-04-26T01:30:02.444Z,960.70
2019-04-26T01:31:02.427Z,960.64
2019-04-26T01:32:02.418Z,960.65
2019-04-26T01:33:02.463Z,960.66
2019-04-26T01:34:17.738Z,960.65
2019-04-26T01:35:37.892Z,960.57
2019-04-26T01:36:12.294Z,960.57
2019-04-26T01:37:03.427Z,960.63
2019-04-26T01:38:02.373Z,960.56
2019-04-26T01:39:02.381Z,960.64
2019-04-26T01:40:02.357Z,960.57
2019-04-26T01:41:02.325Z,960.58
2019-04-26T01:42:02.328Z,960.60
2019-04-26T01:43:02.362Z,960.51
2019-04-26T01:44:02.299Z,960.50
2019-04-26T01:45:02.284Z,960.50
2019-04-26T01:46:02.283Z,960.52
2019-04-26T01:47:02.261Z,960.51
2019-04-26T01:48:02.251Z,960.48
2019-04-26T01:49:02.272Z,960.46
2019-04-26T01:50:02.267Z,960.51
2019-04-26T01:51:02.208Z,960.43
2019-04-26T01:52:02.207Z,960.46
2019-04-26T01:53:02.207Z,960.43
2019-04-26T01:54:02.184Z,960.41
2019-04-26T01:55:02.175Z,960.41
2019-04-26T01:56:02.191Z,960.44
2019-04-26T01:57:02.194Z,960.47
2019-04-26T01:58:02.151Z,960.47
2019-04-26T01:59:02.142Z,960.46
2019-04-26T02:00:02.148Z,960.36
2019-04-26T02:01:02.141Z,960.32
2019-04-26T02:02:02.133Z,960.35
2019-04-26T02:03:02.128Z,960.42
2019-04-26T02:04:02.073Z,960.40
2019-04-26T02:05:02.083Z,960.47
2019-04-26T02:06:02.059Z,960.43
2019-04-26T02:07:02.055Z,960.39
2019-04-26T02:08:02.086Z,960.41
2019-04-26T02:09:08.992Z,960.36
2019-04-26T02:10:02.007Z,960.40
2019-04-26T02:11:02.005Z,960.36
2019-04-26T02:12:02.004Z,960.40
2019-04-26T02:13:01.992Z,960.36
2019-04-26T02:14:02.018Z,960.32
2019-04-26T02:15:01.970Z,960.32
2019-04-26T02:16:01.957Z,960.31
2019-04-26T02:17:01.950Z,960.34
2019-04-26T02:18:01.930Z,960.35
2019-04-26T02:19:01.918Z,960.34
2019-04-26T02:20:01.942Z,960.34
2019-04-26T02:21:01.902Z,960.37
2019-04-26T02:22:01.891Z,960.33
2019-04-26T02:23:01.878Z,960.29
2019-04-26T02:24:01.860Z,960.28
2019-04-26T02:25:01.862Z,960.29
2019-04-26T02:26:01.875Z,960.26
2019-04-26T02:27:01.861Z,960.22
2019-04-26T02:28:01.817Z,960.23
2019-04-26T02:29:01.812Z,960.18
2019-04-26T02:30:01.821Z,960.22
2019-04-26T02:31:01.821Z,960.23
2019-04-26T02:32:01.787Z,960.20
2019-04-26T02:33:01.770Z,960.26
2019-04-26T02:34:01.751Z,960.18
2019-04-26T02:35:01.760Z,960.12
2019-04-26T02:36:01.738Z,960.15
2019-04-26T02:37:01.761Z,960.12
2019-04-26T02:38:01.746Z,960.18
2019-04-26T02:39:01.697Z,960.19
2019-04-26T02:40:01.712Z,960.14
2019-04-26T02:41:01.680Z,960.10
2019-04-26T02:42:01.674Z,960.03
2019-04-26T02:43:01.690Z,960.05
2019-04-26T02:44:01.643Z,960.12
2019-04-26T02:45:01.639Z,960.09
2019-04-26T02:46:01.604Z,960.08
2019-04-26T02:47:01.619Z,960.11
2019-04-26T02:48:01.618Z,960.12
2019-04-26T02:49:01.623Z,960.16
2019-04-26T02:50:01.584Z,960.14
2019-04-26T02:51:01.582Z,960.16
2019-04-26T02:52:01.560Z,960.11
2019-04-26T02:53:01.555Z,960.09
2019-04-26T02:54:01.571Z,960.14
2019-04-26T02:55:01.521Z,960.12
2019-04-26T02:56:01.516Z,960.09
2019-04-26T02:57:01.494Z,960.06
2019-04-26T02:58:01.490Z,960.06
2019-04-26T02:59:01.483Z,960.07
2019-04-26T03:00:01.529Z,960.05
2019-04-26T03:01:01.487Z,960.04
2019-04-26T03:02:01.451Z,960.03
2019-04-26T03:03:01.481Z,960.00
2019-04-26T03:04:01.433Z,960.03
2019-04-26T03:05:01.490Z,960.01
2019-04-26T03:06:01.450Z,960.02
2019-04-26T03:07:03.628Z,960.01
2019-04-26T03:08:01.366Z,959.90
2019-04-26T03:09:01.400Z,959.97
2019-04-26T03:10:01.357Z,959.89
2019-04-26T03:11:01.344Z,959.94
2019-04-26T03:12:01.363Z,959.93
2019-04-26T03:13:01.320Z,959.86
2019-04-26T03:14:01.308Z,959.92
2019-04-26T03:15:13.427Z,959.93
2019-04-26T03:16:02.310Z,959.90
2019-04-26T03:17:01.278Z,959.89
2019-04-26T03:18:01.297Z,959.86
2019-04-26T03:19:01.265Z,959.81
2019-04-26T03:20:01.248Z,959.84
2019-04-26T03:21:01.245Z,959.81
2019-04-26T03:22:01.217Z,959.74
2019-04-26T03:23:01.219Z,959.72
2019-04-26T03:24:01.246Z,959.77
2019-04-26T03:25:01.212Z,959.77
2019-04-26T03:26:01.181Z,959.80
2019-04-26T03:27:01.084Z,959.81
2019-04-26T03:28:01.064Z,959.79
2019-04-26T03:29:01.185Z,959.77
2019-04-26T03:30:18.795Z,959.74
2019-04-26T03:31:02.037Z,959.86
2019-04-26T03:32:01.022Z,959.85
2019-04-26T03:33:01.098Z,959.78
2019-04-26T03:34:01.139Z,959.82
2019-04-26T03:35:00.988Z,959.80
2019-04-26T03:36:00.975Z,959.83
2019-04-26T03:37:00.976Z,959.81
2019-04-26T03:38:01.047Z,959.79
2019-04-26T03:39:01.030Z,959.69
2019-04-26T03:40:01.068Z,959.79
2019-04-26T03:41:00.907Z,959.67
2019-04-26T03:42:00.891Z,959.73
2019-04-26T03:43:00.891Z,959.69
2019-04-26T03:44:00.883Z,959.74
2019-04-26T03:45:00.853Z,959.70
2019-04-26T03:46:00.875Z,959.73
2019-04-26T03:47:00.837Z,959.63
2019-04-26T03:48:00.817Z,959.62
2019-04-26T03:49:00.828Z,959.57
2019-04-26T03:50:00.801Z,959.59
2019-04-26T03:51:00.796Z,959.60
2019-04-26T03:52:00.816Z,959.61
2019-04-26T03:53:00.758Z,959.52
2019-04-26T03:54:00.757Z,959.62
2019-04-26T03:55:00.766Z,959.59
2019-04-26T03:56:00.833Z,959.71
2019-04-26T03:57:00.736Z,959.65
2019-04-26T03:58:00.738Z,959.57
2019-04-26T03:59:00.802Z,959.60
2019-04-26T04:00:00.789Z,959.53
2019-04-26T04:01:00.662Z,959.53
2019-04-26T04:02:00.763Z,959.47
2019-04-26T04:03:00.810Z,959.57
2019-04-26T04:04:00.741Z,959.55
2019-04-26T04:05:00.733Z,959.51
2019-04-26T04:06:00.712Z,959.49
2019-04-26T04:07:04.946Z,959.48
2019-04-26T04:08:00.701Z,959.49
2019-04-26T04:09:00.615Z,959.47
2019-04-26T04:10:00.580Z,959.52
2019-04-26T04:11:00.659Z,959.43
2019-04-26T04:12:11.075Z,959.47
2019-04-26T04:13:01.627Z,959.47
2019-04-26T04:14:00.597Z,959.46
2019-04-26T04:15:00.550Z,959.45
2019-04-26T04:16:00.612Z,959.42
2019-04-26T04:17:00.504Z,959.41
2019-04-26T04:18:00.495Z,959.38
2019-04-26T04:19:00.614Z,959.42
2019-04-26T04:20:00.615Z,959.46
2019-04-26T04:21:00.572Z,959.47
2019-04-26T04:22:00.548Z,959.41
2019-04-26T04:23:00.428Z,959.46
2019-04-26T04:24:00.523Z,959.41
2019-04-26T04:25:00.557Z,959.36
2019-04-26T04:26:00.498Z,959.38
2019-04-26T04:27:00.489Z,959.41
2019-04-26T04:28:03.362Z,959.39
2019-04-26T04:29:00.490Z,959.42
2019-04-26T04:30:00.361Z,959.44
2019-04-26T04:31:00.484Z,959.44
2019-04-26T04:32:00.438Z,959.37
2019-04-26T04:33:00.428Z,959.35
2019-04-26T04:34:00.429Z,959.32
2019-04-26T04:35:00.404Z,959.32
2019-04-26T04:36:00.384Z,959.32
2019-04-26T04:37:00.411Z,959.30
2019-04-26T04:38:08.520Z,959.37
2019-04-26T04:39:11.319Z,959.25
2019-04-26T04:40:01.337Z,959.33
2019-04-26T04:41:00.347Z,959.32
2019-04-26T04:42:00.368Z,959.30
2019-04-26T04:43:00.443Z,959.36
2019-04-26T04:44:00.332Z,959.25
2019-04-26T04:45:00.299Z,959.30
2019-04-26T04:46:00.370Z,959.23
2019-04-26T04:47:00.300Z,959.30
2019-04-26T04:48:00.269Z,959.32
2019-04-26T04:49:00.290Z,959.33
2019-04-26T04:50:00.274Z,959.33
2019-04-26T04:51:00.227Z,959.18
2019-04-26T04:52:00.213Z,959.25
2019-04-26T04:53:00.209Z,959.30
2019-04-26T04:54:00.204Z,959.35
2019-04-26T04:55:07.145Z,959.34
2019-04-26T04:56:01.195Z,959.35
2019-04-26T04:57:00.167Z,959.32
2019-04-26T04:58:00.153Z,959.33
2019-04-26T04:59:00.144Z,959.33
2019-04-26T05:00:00.133Z,959.35
2019-04-26T05:01:00.104Z,959.30
2019-04-26T05:02:00.135Z,959.27
2019-04-26T05:03:00.087Z,959.37
2019-04-26T05:04:00.086Z,959.33
2019-04-26T05:05:00.069Z,959.35
2019-04-26T05:06:07.428Z,959.36
2019-04-26T05:07:01.074Z,959.31
2019-04-26T05:08:06.662Z,959.32
2019-04-26T05:09:01.032Z,959.34
2019-04-26T05:10:00.013Z,959.35
2019-04-26T05:10:59.913Z,959.31
2019-04-26T05:11:59.996Z,959.35
2019-04-26T05:12:59.976Z,959.40
2019-04-26T05:13:59.924Z,959.35
2019-04-26T05:14:59.951Z,959.37
2019-04-26T05:15:59.943Z,959.39
2019-04-26T05:16:59.829Z,959.38
2019-04-26T05:17:59.939Z,959.33
2019-04-26T05:18:59.955Z,959.30
2019-04-26T05:19:59.902Z,959.27
2019-04-26T05:20:59.903Z,959.28
2019-04-26T05:21:59.879Z,959.34
2019-04-26T05:22:59.782Z,959.28
2019-04-26T05:23:59.858Z,959.36
2019-04-26T05:24:59.888Z,959.32
2019-04-26T05:25:59.837Z,959.29
2019-04-26T05:26:59.826Z,959.36
2019-04-26T05:27:59.829Z,959.38
2019-04-26T05:28:59.810Z,959.34
2019-04-26T05:29:59.798Z,959.35
2019-04-26T05:30:59.820Z,959.38
2019-04-26T05:31:59.798Z,959.36
2019-04-26T05:32:59.779Z,959.37
2019-04-26T05:33:59.753Z,959.35
2019-04-26T05:34:59.735Z,959.44
2019-04-26T05:35:59.733Z,959.37
2019-04-26T05:36:59.624Z,959.29
2019-04-26T05:37:59.721Z,959.31
2019-04-26T05:38:59.703Z,959.32
2019-04-26T05:39:59.681Z,959.27
2019-04-26T05:40:59.581Z,959.30
2019-04-26T05:41:59.685Z,959.32
2019-04-26T05:42:59.652Z,959.41
2019-04-26T05:43:59.577Z,959.38
2019-04-26T05:44:59.646Z,959.41
2019-04-26T05:45:59.628Z,959.36
2019-04-26T05:46:59.605Z,959.36
2019-04-26T05:48:09.286Z,959.32
2019-04-26T05:49:00.613Z,959.38
2019-04-26T05:49:59.587Z,959.35
2019-04-26T05:50:59.576Z,959.41
2019-04-26T05:51:59.558Z,959.33
2019-04-26T05:52:59.787Z,959.41
2019-04-26T05:53:59.528Z,959.37
2019-04-26T05:54:59.548Z,959.34
2019-04-26T05:55:59.520Z,959.34
2019-04-26T05:56:59.555Z,959.31
2019-04-26T05:57:59.489Z,959.35
2019-04-26T05:59:01.210Z,959.32
2019-04-26T05:59:59.472Z,959.39
2019-04-26T06:00:59.473Z,959.35
2019-04-26T06:01:59.439Z,959.33
2019-04-26T06:02:59.478Z,959.33
2019-04-26T06:03:59.420Z,959.33
2019-04-26T06:04:59.307Z,959.30
2019-04-26T06:05:59.411Z,959.36
2019-04-26T06:06:59.394Z,959.44
2019-04-26T06:07:59.378Z,959.35
2019-04-26T06:08:59.674Z,959.36
2019-04-26T06:09:59.362Z,959.37
2019-04-26T06:11:00.011Z,959.37
2019-04-26T06:11:59.355Z,959.37
2019-04-26T06:12:59.314Z,959.35
2019-04-26T06:13:59.905Z,959.31
2019-04-26T06:14:59.226Z,959.35
2019-04-26T06:16:00.131Z,959.39
2019-04-26T06:16:59.312Z,959.42
2019-04-26T06:17:59.732Z,959.41
2019-04-26T06:18:59.721Z,959.39
2019-04-26T06:19:59.439Z,959.40
2019-04-26T06:20:59.797Z,959.31
2019-04-26T06:22:00.049Z,959.18
2019-04-26T06:22:59.742Z,959.19
2019-04-26T06:23:59.991Z,959.22
2019-04-26T06:25:00.384Z,959.15
2019-04-26T06:26:01.432Z,959.17
2019-04-26T06:27:11.868Z,959.20
2019-04-26T06:28:00.670Z,959.14
2019-04-26T06:28:59.153Z,959.09
2019-04-26T06:29:59.028Z,959.16
2019-04-26T06:30:59.366Z,959.14
2019-04-26T06:31:59.062Z,959.20
2019-04-26T06:33:03.239Z,959.17
2019-04-26T06:34:00.939Z,959.21
2019-04-26T06:34:59.319Z,959.22
2019-04-26T06:35:59.356Z,959.20
2019-04-26T06:36:59.726Z,959.20
2019-04-26T06:37:59.787Z,959.22
2019-04-26T06:38:59.928Z,959.18
2019-04-26T06:39:59.941Z,959.25
2019-04-26T06:40:59.024Z,959.23
2019-04-26T06:41:59.025Z,959.24
2019-04-26T06:42:59.034Z,959.35
2019-04-26T06:43:58.993Z,959.41
2019-04-26T06:44:58.973Z,959.55
2019-04-26T06:45:58.875Z,959.68
2019-04-26T06:46:59.805Z,959.82
2019-04-26T06:47:58.955Z,959.81
2019-04-26T06:48:59.015Z,959.89
2019-04-26T06:49:58.828Z,959.96
2019-04-26T06:50:59.771Z,959.93
2019-04-26T06:51:58.918Z,959.99
2019-04-26T06:52:58.879Z,959.99
2019-04-26T06:53:58.787Z,960.02
2019-04-26T06:54:59.709Z,960.08
2019-04-26T06:55:59.130Z,960.13
2019-04-26T06:57:07.944Z,960.26
2019-04-26T06:58:01.011Z,960.26
2019-04-26T06:58:59.261Z,960.46
2019-04-26T06:59:59.202Z,960.52
2019-04-26T07:00:59.041Z,960.56
2019-04-26T07:01:59.165Z,960.51
2019-04-26T07:02:58.948Z,960.47
2019-04-26T07:03:59.688Z,960.57
2019-04-26T07:04:59.364Z,960.60
2019-04-26T07:05:58.917Z,960.61
2019-04-26T07:06:59.928Z,960.64
2019-04-26T07:07:58.736Z,960.63
2019-04-26T07:09:00.555Z,960.58
2019-04-26T07:09:59.891Z,960.56
2019-04-26T07:10:59.584Z,960.61
2019-04-26T07:11:59.493Z,960.62
2019-04-26T07:12:59.616Z,960.76
2019-04-26T07:13:59.292Z,960.68
2019-04-26T07:14:59.478Z,960.78
2019-04-26T07:15:58.656Z,960.73
2019-04-26T07:16:59.720Z,960.77
2019-04-26T07:17:58.656Z,960.85
2019-04-26T07:18:58.651Z,960.93
2019-04-26T07:20:00.842Z,960.98
2019-04-26T07:21:00.471Z,960.92
2019-04-26T07:21:58.583Z,960.97
2019-04-26T07:22:59.371Z,960.91
2019-04-26T07:23:58.640Z,961.03
2019-04-26T07:25:00.008Z,960.96
2019-04-26T07:25:59.198Z,960.94
2019-04-26T07:26:58.529Z,960.81
2019-04-26T07:28:06.029Z,960.83
2019-04-26T07:29:01.143Z,960.87
2019-04-26T07:29:58.555Z,960.97
2019-04-26T07:30:58.486Z,961.00
2019-04-26T07:31:58.480Z,961.01
2019-04-26T07:32:58.460Z,961.05
2019-04-26T07:33:58.460Z,961.11
2019-04-26T07:34:58.487Z,961.17
2019-04-26T07:35:58.973Z,961.12
2019-04-26T07:36:58.316Z,961.24
2019-04-26T07:37:58.303Z,961.25
2019-04-26T07:39:10.434Z,961.28
2019-04-26T07:39:59.321Z,961.38
2019-04-26T07:40:58.286Z,961.33
2019-04-26T07:41:58.269Z,961.42
2019-04-26T07:42:58.262Z,961.37
2019-04-26T07:43:58.242Z,961.49
2019-04-26T07:44:58.247Z,961.49
2019-04-26T07:45:58.259Z,961.54
2019-04-26T07:46:58.208Z,961.61
2019-04-26T07:47:58.247Z,961.58
2019-04-26T07:48:58.187Z,961.61
2019-04-26T07:49:58.174Z,961.70
2019-04-26T07:50:58.177Z,961.55
2019-04-26T07:51:58.173Z,961.62
2019-04-26T07:52:58.161Z,961.63
2019-04-26T07:53:58.166Z,961.55
2019-04-26T07:54:58.119Z,961.60
2019-04-26T07:55:58.107Z,961.67
2019-04-26T07:56:58.110Z,961.58
2019-04-26T07:57:58.086Z,961.60
2019-04-26T07:58:58.086Z,961.61
2019-04-26T07:59:58.101Z,961.61
2019-04-26T08:00:58.096Z,961.72
2019-04-26T08:01:58.127Z,961.72
2019-04-26T08:02:58.049Z,961.64
2019-04-26T08:03:58.031Z,961.68
2019-04-26T08:04:58.033Z,961.63
2019-04-26T08:05:58.006Z,961.72
2019-04-26T08:06:58.022Z,961.68
2019-04-26T08:07:57.971Z,961.68
2019-04-26T08:08:57.992Z,961.71
2019-04-26T08:09:59.700Z,961.72
2019-04-26T08:10:57.947Z,961.78
2019-04-26T08:11:57.981Z,961.75
2019-04-26T08:12:57.938Z,961.79
2019-04-26T08:13:57.928Z,961.73
2019-04-26T08:14:57.897Z,961.80
2019-04-26T08:15:57.909Z,961.81
2019-04-26T08:16:57.982Z,961.78
2019-04-26T08:17:57.887Z,961.89
2019-04-26T08:18:57.870Z,961.84
2019-04-26T08:19:58.861Z,961.88
2019-04-26T08:20:57.847Z,961.83
2019-04-26T08:22:11.469Z,961.86
2019-04-26T08:23:02.755Z,961.84
2019-04-26T08:23:58.807Z,961.91
2019-04-26T08:24:57.804Z,961.87
2019-04-26T08:25:57.787Z,961.85
2019-04-26T08:27:08.276Z,961.93
2019-04-26T08:27:58.802Z,961.83
2019-04-26T08:29:00.548Z,961.90
2019-04-26T08:29:57.746Z,961.94
2019-04-26T08:30:57.745Z,961.93
2019-04-26T08:31:58.018Z,961.93
2019-04-26T08:32:57.739Z,961.99
2019-04-26T08:33:57.713Z,962.09
2019-04-26T08:34:57.703Z,962.07
2019-04-26T08:35:57.703Z,962.01
2019-04-26T08:37:01.740Z,962.11
2019-04-26T08:37:58.696Z,962.08
2019-04-26T08:38:57.645Z,962.15
2019-04-26T08:39:57.647Z,962.14
2019-04-26T08:41:00.368Z,962.11
2019-04-26T08:41:58.633Z,962.13
2019-04-26T08:42:58.766Z,962.03
2019-04-26T08:43:59.786Z,962.13
2019-04-26T08:44:58.605Z,962.18
2019-04-26T08:46:03.216Z,962.26
2019-04-26T08:46:58.564Z,962.26
2019-04-26T08:47:57.558Z,962.27
2019-04-26T08:48:58.122Z,962.25
2019-04-26T08:49:57.562Z,962.18
2019-04-26T08:50:57.533Z,962.25
2019-04-26T08:51:57.594Z,962.24
2019-04-26T08:52:57.960Z,962.25
2019-04-26T08:53:57.497Z,962.21
2019-04-26T08:54:57.518Z,962.28
2019-04-26T08:55:57.466Z,962.30
2019-04-26T08:56:57.452Z,962.28
2019-04-26T08:57:57.443Z,962.30
2019-04-26T08:58:57.454Z,962.33
2019-04-26T08:59:57.447Z,962.32
2019-04-26T09:00:57.547Z,962.44
2019-04-26T09:01:57.552Z,962.39
2019-04-26T09:02:57.411Z,962.55
2019-04-26T09:03:57.487Z,962.47
2019-04-26T09:04:57.472Z,962.47
2019-04-26T09:05:57.465Z,962.43
2019-04-26T09:06:57.475Z,962.44
2019-04-26T09:07:58.842Z,962.37
2019-04-26T09:08:57.442Z,962.36
2019-04-26T09:10:01.374Z,962.49
2019-04-26T09:10:58.417Z,962.57
2019-04-26T09:11:59.773Z,962.59
2019-04-26T09:12:57.276Z,962.58
2019-04-26T09:13:57.309Z,962.68
2019-04-26T09:14:57.275Z,962.54
2019-04-26T09:15:57.285Z,962.55
2019-04-26T09:16:57.255Z,962.56
2019-04-26T09:17:57.241Z,962.58
2019-04-26T09:18:59.618Z,962.55
2019-04-26T09:19:58.254Z,962.52
2019-04-26T09:20:57.249Z,962.50
2019-04-26T09:21:59.161Z,962.54
2019-04-26T09:23:03.955Z,962.44
2019-04-26T09:23:58.170Z,962.46
2019-04-26T09:24:59.294Z,962.54
2019-04-26T09:25:59.357Z,962.47
2019-04-26T09:26:57.299Z,962.53
2019-04-26T09:27:58.959Z,962.65
2019-04-26T09:28:57.595Z,962.49
2019-04-26T09:30:00.489Z,962.56
2019-04-26T09:30:58.095Z,962.68
2019-04-26T09:31:57.082Z,962.67
2019-04-26T09:32:58.327Z,962.64
2019-04-26T09:33:57.056Z,962.70
2019-04-26T09:34:57.057Z,962.60
2019-04-26T09:35:57.051Z,962.61
2019-04-26T09:36:57.034Z,962.68
2019-04-26T09:37:57.021Z,962.74
2019-04-26T09:38:57.031Z,962.77
2019-04-26T09:40:09.360Z,962.61
2019-04-26T09:41:00.463Z,962.64
2019-04-26T09:41:56.982Z,962.62
2019-04-26T09:42:56.972Z,962.63
2019-04-26T09:43:58.764Z,962.57
2019-04-26T09:44:57.029Z,962.62
2019-04-26T09:45:56.926Z,962.76
2019-04-26T09:46:56.924Z,962.72
2019-04-26T09:47:56.904Z,962.73
2019-04-26T09:48:56.931Z,962.72
2019-04-26T09:49:56.884Z,962.69
2019-04-26T09:50:56.864Z,962.72
2019-04-26T09:51:56.866Z,962.56
2019-04-26T09:52:58.263Z,962.60
2019-04-26T09:53:56.824Z,962.60
2019-04-26T09:54:56.860Z,962.66
2019-04-26T09:55:56.823Z,962.62
2019-04-26T09:56:56.805Z,962.63
2019-04-26T09:57:57.072Z,962.69
2019-04-26T09:58:56.790Z,962.63
2019-04-26T09:59:56.800Z,962.66
2019-04-26T10:00:56.763Z,962.66
2019-04-26T10:01:59.406Z,962.65
2019-04-26T10:02:56.744Z,962.71
2019-04-26T10:03:56.727Z,962.71
2019-04-26T10:04:56.704Z,962.64
2019-04-26T10:05:57.084Z,962.72
2019-04-26T10:06:59.494Z,962.75
2019-04-26T10:07:56.684Z,962.80
2019-04-26T10:08:56.665Z,962.77
2019-04-26T10:10:00.773Z,962.82
2019-04-26T10:10:56.635Z,962.80
2019-04-26T10:11:56.658Z,962.75
2019-04-26T10:12:56.623Z,962.74
2019-04-26T10:13:56.604Z,962.73
2019-04-26T10:14:56.604Z,962.79
2019-04-26T10:15:58.097Z,962.85
2019-04-26T10:16:57.594Z,962.77
2019-04-26T10:17:56.571Z,962.73
2019-04-26T10:18:58.329Z,962.75
2019-04-26T10:19:56.573Z,962.71
2019-04-26T10:20:56.584Z,962.83
2019-04-26T10:21:56.575Z,962.77
2019-04-26T10:22:56.526Z,962.86
2019-04-26T10:23:56.510Z,962.75
2019-04-26T10:24:56.485Z,962.72
2019-04-26T10:25:56.491Z,962.83
2019-04-26T10:26:59.244Z,962.72
2019-04-26T10:27:56.499Z,962.86
2019-04-26T10:28:56.446Z,962.90
2019-04-26T10:30:07.438Z,962.93
2019-04-26T10:30:57.418Z,962.89
2019-04-26T10:31:56.410Z,962.85
2019-04-26T10:32:58.248Z,962.83
2019-04-26T10:33:57.426Z,962.92
2019-04-26T10:34:56.383Z,962.93
2019-04-26T10:35:56.825Z,962.95
2019-04-26T10:36:57.139Z,962.95
2019-04-26T10:37:56.354Z,962.97
2019-04-26T10:38:58.397Z,962.92
2019-04-26T10:39:56.356Z,962.88
2019-04-26T10:40:56.332Z,962.87
2019-04-26T10:41:56.311Z,962.83
2019-04-26T10:42:56.302Z,962.87
2019-04-26T10:43:56.303Z,962.74
2019-04-26T10:44:56.275Z,962.72
2019-04-26T10:45:56.311Z,962.71
2019-04-26T10:46:59.776Z,962.75
2019-04-26T10:47:57.262Z,962.79
2019-04-26T10:49:08.243Z,962.77
2019-04-26T10:49:58.148Z,962.84
2019-04-26T10:50:56.315Z,962.89
2019-04-26T10:51:56.247Z,962.86
2019-04-26T10:52:56.297Z,962.74
2019-04-26T10:53:56.180Z,962.82
2019-04-26T10:54:56.169Z,962.82
2019-04-26T10:55:56.251Z,962.80
2019-04-26T10:56:56.137Z,962.80
2019-04-26T10:57:56.306Z,962.83
2019-04-26T10:58:56.133Z,962.71
2019-04-26T10:59:56.115Z,962.84
2019-04-26T11:00:56.111Z,962.75
2019-04-26T11:01:56.106Z,962.82
2019-04-26T11:02:56.074Z,962.90
2019-04-26T11:03:56.113Z,962.89
2019-04-26T11:04:56.101Z,962.85
2019-04-26T11:05:56.151Z,962.74
2019-04-26T11:06:58.123Z,962.77
2019-04-26T11:07:57.024Z,962.80
2019-04-26T11:08:56.118Z,962.80
2019-04-26T11:09:56.006Z,962.78
2019-04-26T11:10:56.134Z,962.72
2019-04-26T11:11:56.024Z,962.82
2019-04-26T11:12:56.071Z,962.77
2019-04-26T11:13:57.523Z,962.76
2019-04-26T11:14:56.969Z,962.78
2019-04-26T11:15:55.942Z,962.77
2019-04-26T11:16:55.935Z,962.78
2019-04-26T11:17:56.066Z,962.77
2019-04-26T11:18:57.176Z,962.75
2019-04-26T11:19:55.909Z,962.78
2019-04-26T11:20:55.900Z,962.79
2019-04-26T11:21:56.047Z,962.72
2019-04-26T11:22:55.994Z,962.74
2019-04-26T11:23:55.988Z,962.84
2019-04-26T11:24:55.922Z,962.83
2019-04-26T11:25:57.975Z,962.83
2019-04-26T11:26:56.838Z,962.85
2019-04-26T11:27:55.931Z,962.90
2019-04-26T11:28:57.161Z,962.85
2019-04-26T11:29:59.662Z,962.92
2019-04-26T11:30:57.490Z,962.87
2019-04-26T11:31:58.415Z,962.84
2019-04-26T11:32:56.874Z,962.84
2019-04-26T11:34:05.046Z,962.85
2019-04-26T11:34:58.774Z,962.87
2019-04-26T11:35:55.841Z,962.87
2019-04-26T11:36:55.746Z,962.91
2019-04-26T11:37:56.967Z,962.97
2019-04-26T11:38:55.796Z,962.92
2019-04-26T11:39:55.704Z,962.95
2019-04-26T11:41:05.956Z,962.97
2019-04-26T11:41:56.673Z,963.01
2019-04-26T11:42:55.768Z,963.00
2019-04-26T11:43:55.881Z,963.02
2019-04-26T11:45:05.765Z,962.99
2019-04-26T11:46:04.132Z,963.16
2019-04-26T11:46:59.436Z,963.08
2019-04-26T11:47:56.773Z,963.07
2019-04-26T11:48:59.236Z,963.15
2019-04-26T11:49:55.669Z,963.10
2019-04-26T11:50:55.666Z,963.01
2019-04-26T11:51:58.530Z,963.10
2019-04-26T11:52:56.648Z,963.08
2019-04-26T11:53:55.632Z,963.10
2019-04-26T11:54:56.243Z,963.16
2019-04-26T11:55:55.657Z,963.16
2019-04-26T11:56:55.517Z,963.08
2019-04-26T11:57:55.594Z,963.14
2019-04-26T11:58:56.903Z,963.08
2019-04-26T11:59:55.478Z,963.06
2019-04-26T12:00:55.565Z,963.17
2019-04-26T12:01:55.480Z,963.25
2019-04-26T12:02:55.538Z,963.20
2019-04-26T12:03:59.267Z,963.27
2019-04-26T12:04:55.409Z,963.25
2019-04-26T12:05:55.509Z,963.33
2019-04-26T12:06:55.423Z,963.26
2019-04-26T12:07:55.393Z,963.39
2019-04-26T12:08:55.375Z,963.36
2019-04-26T12:09:55.363Z,963.42
2019-04-26T12:10:55.361Z,963.44
2019-04-26T12:12:04.525Z,963.45
2019-04-26T12:13:05.482Z,963.53
2019-04-26T12:13:59.492Z,963.61
2019-04-26T12:14:55.315Z,963.74
2019-04-26T12:15:55.306Z,963.68
2019-04-26T12:16:59.907Z,963.73
2019-04-26T12:17:58.642Z,963.80
2019-04-26T12:18:55.275Z,963.90
2019-04-26T12:19:55.254Z,963.85
2019-04-26T12:20:57.112Z,963.87
2019-04-26T12:21:56.284Z,963.87
2019-04-26T12:22:55.334Z,964.00
2019-04-26T12:23:55.767Z,963.95
2019-04-26T12:24:55.298Z,964.09
2019-04-26T12:25:55.184Z,964.04
2019-04-26T12:26:55.910Z,964.08
2019-04-26T12:27:55.293Z,964.14